createdAt,value
2023-04-18T09:16:06.479Z,7.60
2023-04-18T09:18:35.417Z,9.80
2023-04-18T09:21:18.721Z,9.40
2023-04-18T09:23:50.502Z,9.90
2023-04-18T09:26:34.150Z,7.60
2023-04-18T09:29:03.385Z,7.10
2023-04-18T09:31:33.062Z,5.40
2023-04-18T09:34:03.153Z,8.90
2023-04-18T09:36:32.404Z,9.10
2023-04-18T09:39:00.859Z,8.20
2023-04-18T09:41:31.092Z,8.60
2023-04-18T09:44:14.338Z,9.40
2023-04-18T09:46:47.435Z,7.10
2023-04-18T09:49:17.120Z,10.30
2023-04-18T09:51:46.413Z,9.70
2023-04-18T09:54:15.961Z,13.40
2023-04-18T09:56:44.977Z,7.60
2023-04-18T09:59:13.430Z,8.50
2023-04-18T10:01:41.878Z,12.90
2023-04-18T10:04:10.103Z,10.70
2023-04-18T10:06:40.059Z,10.90
2023-04-18T10:09:08.893Z,10.50
2023-04-18T10:11:37.122Z,10.50
2023-04-18T10:14:08.012Z,9.00
2023-04-18T10:16:36.541Z,11.80
2023-04-18T10:19:27.206Z,10.70
2023-04-18T10:21:56.784Z,11.30
2023-04-18T10:24:48.415Z,10.60
2023-04-18T10:27:17.077Z,14.10
2023-04-18T10:29:52.907Z,10.40
2023-04-18T10:32:24.929Z,13.60
2023-04-18T10:34:53.999Z,5.60
2023-04-18T10:37:22.216Z,15.90
2023-04-18T10:40:00.478Z,10.50
2023-04-18T10:42:47.734Z,13.30
2023-04-18T10:45:19.700Z,12.10
2023-04-18T10:47:48.586Z,14.20
2023-04-18T10:50:17.022Z,9.50
2023-04-18T10:52:45.188Z,11.30
2023-04-18T10:55:16.635Z,11.70
2023-04-18T10:57:48.711Z,9.00
2023-04-18T11:00:18.470Z,13.40
2023-04-18T11:02:52.091Z,10.20
2023-04-18T11:05:23.979Z,11.30
2023-04-18T11:07:52.765Z,9.80
2023-04-18T11:10:26.689Z,16.90
2023-04-18T11:12:55.527Z,12.90
2023-04-18T11:15:25.256Z,8.00
2023-04-18T11:18:00.867Z,13.60
2023-04-18T11:20:30.389Z,12.30
2023-04-18T11:22:59.962Z,13.40
2023-04-18T11:25:32.635Z,12.30
2023-04-18T11:28:02.383Z,11.10
2023-04-18T11:30:38.175Z,17.50
2023-04-18T11:33:11.488Z,13.70
2023-04-18T11:35:46.252Z,10.50
2023-04-18T11:38:15.227Z,12.70
2023-04-18T11:40:50.081Z,15.10
2023-04-18T11:43:22.953Z,13.70
2023-04-18T11:45:59.014Z,12.70
2023-04-18T11:48:45.409Z,12.50
2023-04-18T11:51:38.887Z,13.40
2023-04-18T11:54:28.296Z,9.60
2023-04-18T11:56:57.739Z,12.40
2023-04-18T11:59:26.333Z,13.90
2023-04-18T12:02:15.532Z,10.90
2023-04-18T12:04:58.576Z,11.40
2023-04-18T12:07:44.107Z,13.10
2023-04-18T12:10:29.588Z,14.00
2023-04-18T12:12:58.965Z,16.10
2023-04-18T12:15:28.716Z,8.60
2023-04-18T12:17:59.737Z,9.70
2023-04-18T12:20:46.364Z,14.70
2023-04-18T12:23:35.621Z,8.40
2023-04-18T12:26:05.807Z,9.80
2023-04-18T12:28:36.289Z,9.50
2023-04-18T12:31:07.785Z,12.50
2023-04-18T12:33:36.889Z,11.10
2023-04-18T12:36:06.168Z,16.60
2023-04-18T12:38:35.195Z,13.50
2023-04-18T12:41:03.743Z,15.40
2023-04-18T12:43:31.931Z,16.70
2023-04-18T12:46:00.117Z,12.40
2023-04-18T12:48:28.338Z,11.20
2023-04-18T12:50:56.509Z,13.00
2023-04-18T12:53:24.916Z,12.80
2023-04-18T12:55:53.029Z,16.60
2023-04-18T12:58:21.689Z,13.80
2023-04-18T13:00:50.253Z,15.10
2023-04-18T13:03:18.995Z,15.50
2023-04-18T13:05:47.460Z,16.00
2023-04-18T13:08:18.210Z,15.30
2023-04-18T13:10:48.684Z,11.30
2023-04-18T13:13:17.532Z,15.70
2023-04-18T13:15:45.976Z,14.60
2023-04-18T13:18:14.202Z,14.70
2023-04-18T13:20:42.600Z,9.90
2023-04-18T13:23:11.129Z,11.50
2023-04-18T13:25:40.085Z,13.60
2023-04-18T13:28:08.673Z,10.10
2023-04-18T13:30:36.811Z,9.80
2023-04-18T13:33:05.557Z,11.50
2023-04-18T13:35:33.763Z,8.90
2023-04-18T13:38:10.888Z,9.00
2023-04-18T13:40:39.112Z,10.90
2023-04-18T13:43:07.350Z,10.40
2023-04-18T13:45:35.730Z,10.60
2023-04-18T13:48:04.259Z,14.40
2023-04-18T13:50:32.512Z,11.90
2023-04-18T13:53:00.656Z,13.10
2023-04-18T13:55:29.007Z,14.40
2023-04-18T13:57:57.400Z,18.70
2023-04-18T14:00:25.725Z,17.80
2023-04-18T14:02:55.518Z,21.10
2023-04-18T14:05:23.909Z,15.50
2023-04-18T14:07:52.170Z,19.50
2023-04-18T14:10:21.859Z,17.40
2023-04-18T14:12:51.354Z,18.70
2023-04-18T14:15:19.615Z,13.80
2023-04-18T14:17:47.843Z,15.40
2023-04-18T14:20:19.335Z,15.50
2023-04-18T14:22:50.924Z,12.10
2023-04-18T14:25:20.744Z,9.30
2023-04-18T14:27:48.965Z,9.70
2023-04-18T14:30:19.588Z,15.30
2023-04-18T14:32:47.786Z,13.70
2023-04-18T14:35:16.118Z,10.40
2023-04-18T14:37:44.356Z,12.00
2023-04-18T14:40:12.568Z,6.30
2023-04-18T14:42:41.007Z,5.70
2023-04-18T14:45:11.323Z,5.20
2023-04-18T14:47:43.014Z,6.80
2023-04-18T14:50:12.141Z,11.30
2023-04-18T14:52:41.186Z,9.40
2023-04-18T14:55:09.850Z,8.10
2023-04-18T14:57:39.002Z,4.50
2023-04-18T15:00:11.350Z,8.50
2023-04-18T15:02:40.332Z,5.70
2023-04-18T15:05:10.284Z,9.10
2023-04-18T15:07:39.005Z,7.60
2023-04-18T15:10:18.792Z,8.30
2023-04-18T15:12:55.645Z,10.30
2023-04-18T15:15:25.422Z,8.30
2023-04-18T15:17:54.556Z,7.40
2023-04-18T15:20:26.679Z,8.30
2023-04-18T15:22:56.930Z,10.90
2023-04-18T15:25:26.340Z,13.00
2023-04-18T15:27:54.688Z,7.60
2023-04-18T15:30:23.262Z,8.10
2023-04-18T15:32:52.355Z,9.00
2023-04-18T15:35:21.134Z,12.80
2023-04-18T15:37:49.474Z,9.80
2023-04-18T15:40:18.528Z,11.00
2023-04-18T15:42:49.520Z,8.30
2023-04-18T15:45:17.820Z,10.20
2023-04-18T15:47:46.253Z,17.80
2023-04-18T15:50:16.505Z,18.50
2023-04-18T15:52:44.949Z,15.30
2023-04-18T15:55:13.477Z,17.90
2023-04-18T15:57:41.963Z,21.80
2023-04-18T16:00:17.779Z,19.20
2023-04-18T16:02:46.674Z,13.20
2023-04-18T16:05:15.476Z,12.00
2023-04-18T16:07:44.098Z,9.50
2023-04-18T16:10:13.001Z,9.30
2023-04-18T16:12:41.876Z,12.00
2023-04-18T16:15:10.627Z,14.40
2023-04-18T16:17:38.980Z,14.80
2023-04-18T16:20:09.247Z,18.70
2023-04-18T16:22:37.992Z,20.70
2023-04-18T16:25:06.885Z,25.90
2023-04-18T16:27:35.487Z,42.50
2023-04-18T16:30:04.117Z,84.50
2023-04-18T16:32:33.349Z,60.30
2023-04-18T16:35:01.880Z,72.70
2023-04-18T16:37:31.044Z,41.50
2023-04-18T16:39:59.382Z,22.40
2023-04-18T16:42:27.588Z,20.20
2023-04-18T16:44:55.906Z,20.80
2023-04-18T16:47:24.343Z,22.00
2023-04-18T16:49:52.940Z,19.30
2023-04-18T16:52:22.141Z,11.40
2023-04-18T16:54:52.431Z,11.30
2023-04-18T16:57:21.007Z,14.80
2023-04-18T16:59:49.263Z,13.70
2023-04-18T17:02:17.694Z,12.30
2023-04-18T17:04:46.264Z,18.40
2023-04-18T17:07:14.520Z,18.90
2023-04-18T17:09:44.709Z,20.60
2023-04-18T17:12:14.583Z,31.00
2023-04-18T17:14:42.763Z,25.10
2023-04-18T17:17:11.020Z,22.10
2023-04-18T17:19:40.382Z,20.40
2023-04-18T17:22:08.655Z,20.20
2023-04-18T17:24:36.960Z,14.50
2023-04-18T17:27:05.103Z,18.10
2023-04-18T17:29:33.571Z,18.00
2023-04-18T17:32:02.165Z,19.20
2023-04-18T17:34:31.029Z,22.10
2023-04-18T17:36:59.299Z,20.80
2023-04-18T17:39:27.701Z,20.00
2023-04-18T17:41:56.006Z,19.30
2023-04-18T17:44:24.266Z,18.70
2023-04-18T17:46:52.651Z,31.80
2023-04-18T17:49:21.394Z,33.00
2023-04-18T17:51:49.645Z,63.80
2023-04-18T17:54:18.073Z,80.70
2023-04-18T17:56:46.395Z,82.90
2023-04-18T17:59:15.931Z,142.30
2023-04-18T18:01:45.007Z,145.10
2023-04-18T18:04:16.511Z,113.90
2023-04-18T18:06:54.322Z,84.00
2023-04-18T18:09:25.850Z,35.90
2023-04-18T18:11:55.939Z,25.70
2023-04-18T18:14:24.479Z,37.20
2023-04-18T18:16:52.922Z,33.90
2023-04-18T18:19:21.146Z,25.10
2023-04-18T18:21:49.420Z,20.50
2023-04-18T18:24:18.827Z,28.40
2023-04-18T18:26:47.714Z,24.50
2023-04-18T18:29:16.864Z,24.10
2023-04-18T18:31:45.525Z,20.00
2023-04-18T18:34:14.074Z,13.10
2023-04-18T18:36:42.494Z,8.30
2023-04-18T18:39:14.651Z,6.90
2023-04-18T18:41:43.617Z,7.80
2023-04-18T18:44:11.934Z,7.40
2023-04-18T18:46:41.510Z,8.70
2023-04-18T18:49:11.776Z,10.20
2023-04-18T18:51:41.356Z,9.30
2023-04-18T18:54:09.730Z,7.00
2023-04-18T18:56:39.840Z,8.10
2023-04-18T18:59:11.302Z,8.60
2023-04-18T19:01:39.838Z,11.20
2023-04-18T19:04:08.463Z,9.50
2023-04-18T19:06:37.082Z,10.20
2023-04-18T19:09:05.583Z,8.60
2023-04-18T19:11:34.520Z,9.30
2023-04-18T19:14:03.719Z,6.60
2023-04-18T19:16:34.111Z,8.10
2023-04-18T19:19:02.498Z,5.80
2023-04-18T19:21:33.552Z,6.30
2023-04-18T19:24:03.858Z,11.40
2023-04-18T19:26:33.009Z,7.30
2023-04-18T19:29:01.441Z,8.30
2023-04-18T19:31:32.491Z,8.00
2023-04-18T19:34:01.989Z,8.50
2023-04-18T19:36:32.052Z,6.80
2023-04-18T19:39:00.771Z,8.90
2023-04-18T19:41:29.312Z,8.30
2023-04-18T19:44:03.840Z,9.60
2023-04-18T19:46:33.063Z,9.10
2023-04-18T19:49:01.728Z,9.60
2023-04-18T19:51:30.128Z,8.60
2023-04-18T19:53:59.098Z,12.70
2023-04-18T19:56:46.732Z,12.80
2023-04-18T19:59:16.009Z,18.50
2023-04-18T20:01:44.720Z,17.80
2023-04-18T20:04:13.844Z,14.00
2023-04-18T20:06:46.951Z,15.50
2023-04-18T20:09:17.082Z,16.60
2023-04-18T20:11:48.768Z,15.50
2023-04-18T20:14:19.209Z,9.10
2023-04-18T20:16:50.121Z,10.20
2023-04-18T20:19:19.623Z,8.80
2023-04-18T20:21:48.969Z,9.50
2023-04-18T20:24:21.134Z,7.00
2023-04-18T20:26:51.571Z,9.30
2023-04-18T20:29:20.487Z,5.80
2023-04-18T20:31:48.821Z,6.60
2023-04-18T20:34:17.108Z,8.30
2023-04-18T20:36:46.628Z,7.60
2023-04-18T20:39:18.241Z,7.70
2023-04-18T20:41:50.946Z,10.50
2023-04-18T20:44:23.568Z,7.50
2023-04-18T20:46:54.955Z,9.80
2023-04-18T20:49:27.703Z,11.70
2023-04-18T20:51:56.329Z,6.80
2023-04-18T20:54:25.381Z,7.50
2023-04-18T20:56:56.676Z,9.50
2023-04-18T20:59:25.167Z,6.10
2023-04-18T21:01:53.510Z,7.90
2023-04-18T21:04:21.904Z,6.20
2023-04-18T21:06:50.779Z,8.10
2023-04-18T21:09:19.001Z,6.50
2023-04-18T21:11:47.276Z,6.10
2023-04-18T21:14:17.390Z,7.20
2023-04-18T21:16:46.307Z,9.60
2023-04-18T21:19:14.562Z,6.00
2023-04-18T21:21:42.827Z,7.70
2023-04-18T21:24:11.324Z,5.60
2023-04-18T21:26:39.853Z,7.00
2023-04-18T21:29:08.190Z,7.00
2023-04-18T21:31:38.262Z,12.20
2023-04-18T21:34:06.572Z,12.90
2023-04-18T21:36:35.175Z,11.50
2023-04-18T21:39:04.184Z,8.60
2023-04-18T21:41:32.934Z,8.10
2023-04-18T21:44:01.300Z,9.40
2023-04-18T21:46:29.733Z,8.40
2023-04-18T21:48:57.962Z,7.40
2023-04-18T21:51:27.316Z,6.80
2023-04-18T21:53:55.553Z,8.20
2023-04-18T21:56:23.711Z,8.00
2023-04-18T21:58:52.312Z,9.70
2023-04-18T22:01:20.542Z,8.70
2023-04-18T22:03:49.444Z,10.00
2023-04-18T22:06:18.083Z,8.60
2023-04-18T22:08:46.324Z,12.50
2023-04-18T22:11:15.757Z,9.60
2023-04-18T22:13:46.032Z,8.80
2023-04-18T22:16:14.301Z,15.40
2023-04-18T22:18:42.547Z,19.30
2023-04-18T22:21:10.865Z,23.70
2023-04-18T22:23:39.252Z,20.50
2023-04-18T22:26:15.128Z,14.60
2023-04-18T22:28:49.449Z,12.30
2023-04-18T22:31:22.577Z,10.70
2023-04-18T22:33:51.180Z,9.20
2023-04-18T22:36:19.372Z,9.40
2023-04-18T22:38:47.524Z,5.90
2023-04-18T22:41:15.860Z,7.60
2023-04-18T22:43:45.292Z,7.60
2023-04-18T22:46:13.556Z,10.60
2023-04-18T22:48:41.826Z,9.80
2023-04-18T22:51:11.195Z,16.30
2023-04-18T22:53:39.901Z,21.10
2023-04-18T22:56:08.140Z,23.00
2023-04-18T22:58:36.736Z,26.00
2023-04-18T23:01:05.086Z,22.00
2023-04-18T23:03:36.391Z,22.50
2023-04-18T23:06:07.495Z,19.30
2023-04-18T23:08:36.381Z,18.40
2023-04-18T23:11:04.609Z,17.60
2023-04-18T23:13:32.834Z,17.80
2023-04-18T23:16:01.082Z,15.70
2023-04-18T23:18:30.330Z,10.60
2023-04-18T23:21:00.032Z,11.80
2023-04-18T23:23:28.504Z,11.20
2023-04-18T23:25:56.972Z,7.50
2023-04-18T23:28:25.338Z,9.00
2023-04-18T23:30:53.507Z,7.30
2023-04-18T23:33:21.734Z,6.60
2023-04-18T23:35:49.932Z,5.70
2023-04-18T23:38:18.084Z,5.90
2023-04-18T23:40:46.304Z,6.30
2023-04-18T23:43:14.438Z,6.80
2023-04-18T23:45:42.545Z,8.40
2023-04-18T23:48:10.833Z,7.10
2023-04-18T23:50:48.303Z,9.00
2023-04-18T23:53:17.566Z,5.70
2023-04-18T23:55:46.917Z,9.30
2023-04-18T23:58:15.782Z,10.50
